Franklin, KY (42134)

7:35 PM CDT on October 24, 2014 (GMT -0500)
Friendship Rd.- NE Cross Plains | Change Station
CLOSE
Current Station
Personal Weather Station
Location: Cross Plains, TN
Elevation: 757 ft
Nearby Weather Stations

Elev 757 ft 36.57 °N, 86.67 °W | Updated 1 second ago

Clear
Clear
55.4 °F
Feels Like 55.4 °F
N
0.0
Wind Variable Wind from ENE
Gusts 0.0 mph

Today
High -- | Low -- °F
--% Chance of Precip.
Yesterday
High -- | Low -- °F
Precip. -- in
7:02 AM 5:58 PM
New Moon, 1% visible
Pressure 30.08 in
Visibility 10.0 miles
Clouds Clear
Dew Point 49 °F
Humidity 78%
Rainfall 0.00 in
Snow Depth Not available.
UV 0 out of 12
Pollen 1.10 out of 12
Air Quality Not available.
Flu Activity Sporadic
METAR KBWG 242353Z AUTO 00000KT 10SM CLR 15/08 A3008 RMK AO2 SLP184 T01500078 10206 20150 53004

More Conditions Fewer Conditions

Pressure 30.08 in
Visibility 10.0 miles
Clouds Clear
Dew Point 49 °F
Humidity 78%
Rainfall 0.00 in
Snow Depth Not available.
UV 0 out of 12
Pollen 1.10 out of 12
Air Quality Not available.
Flu Activity Sporadic
METAR KBWG 242353Z AUTO 00000KT 10SM CLR 15/08 A3008 RMK AO2 SLP184 T01500078 10206 20150 53004

More Conditions Fewer Conditions

10-Day Weather Forecast

Almanac

Astronomy

Oct. 24, 2014 Rise Set
Actual Time 7:02 AM CDT 5:58 PM CDT
Civil Twilight 6:35 AM CDT 6:24 PM CDT
Nautical Twilight 6:05 AM CDT 6:54 PM CDT
Astronomical Twilight 5:35 AM CDT 7:24 PM CDT
Moon 7:39 AM CDT (10/24) 6:39 PM CDT (10/24)
Length of Visible Light 11h 48m
Length of Day
10h 56m
Tomorrow will be 2m 10s shorter.
New Moon, 1% of the Moon is Illuminated
Today
New Moon
Oct 30
First Quarter
Nov 6
Full
Nov 14
Last Quarter
Nov 22
New

Today's Extremes

State Highs State Lows

Community

WunderPhotos

Upload Photos

1,764,727 photos uploaded!

WunderBlogs® & News

Nearby

Snow Depth

Station Depth Elevation
No new snow has been reported.

Earthquake Activity

City Distance Mag. Time & Date
No recent earthquake activity has been reported nearby.
Minimum magnitude displayed is 2.5.

Coastal Water Temperatures

Place Temperature
No Stations Reporting

Nearby Weather Stations